createdAt,value
2023-04-16T00:00:52.594Z,12.10
2023-04-16T00:02:54.204Z,12.75
2023-04-16T00:04:55.990Z,13.80
2023-04-16T00:06:57.518Z,13.93
2023-04-16T00:08:59.032Z,12.65
2023-04-16T00:11:00.478Z,12.75
2023-04-16T00:13:01.981Z,13.95
2023-04-16T00:15:03.759Z,13.57
2023-04-16T00:17:05.335Z,14.70
2023-04-16T00:19:06.930Z,13.32
2023-04-16T00:21:08.589Z,14.25
2023-04-16T00:23:10.120Z,14.55
2023-04-16T00:25:11.637Z,14.73
2023-04-16T00:27:13.124Z,13.57
2023-04-16T00:29:14.601Z,15.13
2023-04-16T00:31:16.150Z,15.85
2023-04-16T00:33:17.862Z,13.55
2023-04-16T00:35:19.462Z,14.88
2023-04-16T00:37:21.084Z,14.80
2023-04-16T00:39:22.641Z,14.90
2023-04-16T00:41:24.193Z,14.65
2023-04-16T00:43:26.893Z,14.32
2023-04-16T00:45:28.380Z,14.00
2023-04-16T00:47:31.108Z,14.45
2023-04-16T00:49:32.636Z,14.93
2023-04-16T00:51:35.699Z,15.57
2023-04-16T00:53:37.995Z,15.55
2023-04-16T00:55:39.866Z,15.95
2023-04-16T00:57:41.333Z,14.55
2023-04-16T00:59:42.782Z,16.40
2023-04-16T01:01:44.257Z,15.38
2023-04-16T01:03:48.203Z,15.93
2023-04-16T01:05:50.578Z,14.88
2023-04-16T01:07:52.176Z,16.35
2023-04-16T01:09:53.693Z,15.75
2023-04-16T01:11:55.191Z,15.15
2023-04-16T01:13:56.650Z,15.38
2023-04-16T01:15:58.187Z,16.17
2023-04-16T01:17:59.788Z,15.20
2023-04-16T01:20:01.513Z,15.65
2023-04-16T01:22:03.950Z,16.05
2023-04-16T01:24:05.680Z,15.45
2023-04-16T01:26:07.189Z,15.13
2023-04-16T01:28:08.659Z,15.48
2023-04-16T01:30:10.582Z,14.50
2023-04-16T01:32:12.033Z,14.57
2023-04-16T01:34:13.531Z,15.38
2023-04-16T01:36:15.354Z,15.60
2023-04-16T01:38:17.218Z,15.82
2023-04-16T01:40:19.283Z,16.10
2023-04-16T01:42:20.744Z,15.75
2023-04-16T01:44:23.141Z,14.88
2023-04-16T01:46:29.057Z,16.15
2023-04-16T01:48:30.641Z,15.73
2023-04-16T01:50:32.232Z,16.42
2023-04-16T01:52:33.692Z,15.52
2023-04-16T01:54:35.155Z,15.65
2023-04-16T01:56:36.614Z,15.55
2023-04-16T01:58:38.585Z,17.42
2023-04-16T02:00:40.146Z,15.70
2023-04-16T02:02:41.855Z,15.45
2023-04-16T02:04:45.590Z,15.27
2023-04-16T02:06:47.120Z,15.50
2023-04-16T02:08:48.641Z,15.20
2023-04-16T02:10:50.596Z,15.48
2023-04-16T02:12:52.114Z,15.15
2023-04-16T02:14:53.685Z,14.70
2023-04-16T02:16:55.276Z,15.13
2023-04-16T02:18:56.842Z,14.82
2023-04-16T02:21:00.171Z,14.82
2023-04-16T02:23:01.752Z,15.07
2023-04-16T02:25:03.592Z,15.45
2023-04-16T02:27:05.116Z,14.50
2023-04-16T02:29:07.033Z,14.95
2023-04-16T02:31:08.568Z,14.52
2023-04-16T02:33:11.509Z,14.82
2023-04-16T02:35:13.015Z,14.65
2023-04-16T02:37:15.384Z,15.02
2023-04-16T02:39:16.877Z,14.43
2023-04-16T02:41:18.431Z,15.43
2023-04-16T02:43:19.916Z,15.48
2023-04-16T02:45:21.738Z,14.35
2023-04-16T02:47:23.251Z,14.93
2023-04-16T02:49:24.820Z,15.25
2023-04-16T02:51:26.446Z,14.43
2023-04-16T02:53:27.946Z,14.82
2023-04-16T02:55:30.517Z,14.07
2023-04-16T02:57:32.837Z,14.52
2023-04-16T02:59:34.293Z,13.75
2023-04-16T03:01:35.886Z,15.52
2023-04-16T03:03:37.417Z,14.05
2023-04-16T03:05:40.308Z,14.60
2023-04-16T03:07:41.987Z,14.80
2023-04-16T03:09:43.474Z,13.95
2023-04-16T03:11:44.973Z,14.68
2023-04-16T03:13:46.639Z,14.60
2023-04-16T03:15:49.888Z,14.52
2023-04-16T03:17:51.514Z,15.00
2023-04-16T03:19:52.984Z,14.35
2023-04-16T03:21:54.470Z,14.60
2023-04-16T03:23:56.098Z,15.15
2023-04-16T03:25:57.796Z,15.50
2023-04-16T03:27:59.233Z,13.73
2023-04-16T03:30:01.098Z,14.63
2023-04-16T03:32:02.611Z,15.05
2023-04-16T03:34:04.054Z,15.32
2023-04-16T03:36:05.993Z,16.00
2023-04-16T03:38:07.439Z,15.02
2023-04-16T03:40:09.100Z,15.63
2023-04-16T03:42:10.569Z,15.88
2023-04-16T03:44:12.037Z,15.65
2023-04-16T03:46:13.506Z,15.10
2023-04-16T03:48:15.877Z,16.85
2023-04-16T03:50:17.417Z,15.63
2023-04-16T03:52:18.886Z,16.58
2023-04-16T03:54:22.562Z,15.30
2023-04-16T03:56:24.577Z,15.60
2023-04-16T03:58:26.114Z,16.75
2023-04-16T04:00:27.618Z,16.20
2023-04-16T04:02:29.358Z,15.30
2023-04-16T04:04:31.070Z,16.58
2023-04-16T04:06:32.672Z,16.30
2023-04-16T04:08:34.158Z,15.75
2023-04-16T04:10:36.128Z,15.52
2023-04-16T04:12:37.594Z,16.83
2023-04-16T04:14:40.106Z,16.00
2023-04-16T04:16:41.756Z,15.70
2023-04-16T04:18:44.462Z,15.98
2023-04-16T04:20:46.137Z,16.23
2023-04-16T04:22:47.787Z,16.25
2023-04-16T04:24:49.251Z,16.58
2023-04-16T04:26:50.713Z,17.27
2023-04-16T04:28:52.175Z,15.65
2023-04-16T04:30:53.637Z,17.75
2023-04-16T04:32:55.146Z,16.83
2023-04-16T04:34:57.047Z,16.17
2023-04-16T04:36:59.348Z,16.75
2023-04-16T04:39:00.970Z,15.65
2023-04-16T04:41:02.418Z,16.33
2023-04-16T04:43:03.910Z,15.88
2023-04-16T04:45:06.195Z,16.65
2023-04-16T04:47:07.680Z,16.23
2023-04-16T04:49:09.367Z,15.63
2023-04-16T04:51:10.971Z,16.35
2023-04-16T04:53:14.737Z,15.30
2023-04-16T04:55:16.369Z,15.68
2023-04-16T04:57:17.845Z,15.85
2023-04-16T04:59:21.400Z,16.20
2023-04-16T05:01:22.880Z,15.30
2023-04-16T05:03:24.439Z,16.35
2023-04-16T05:05:26.007Z,16.23
2023-04-16T05:07:27.497Z,15.23
2023-04-16T05:09:28.967Z,16.38
2023-04-16T05:11:30.482Z,15.95
2023-04-16T05:13:31.999Z,15.55
2023-04-16T05:15:33.471Z,15.45
2023-04-16T05:17:34.936Z,15.88
2023-04-16T05:19:36.793Z,15.18
2023-04-16T05:21:38.287Z,16.15
2023-04-16T05:23:39.723Z,16.30
2023-04-16T05:25:41.225Z,15.93
2023-04-16T05:27:42.993Z,15.02
2023-04-16T05:29:44.478Z,15.48
2023-04-16T05:31:46.273Z,15.50
2023-04-16T05:33:47.745Z,14.60
2023-04-16T05:35:49.289Z,16.77
2023-04-16T05:37:50.749Z,14.90
2023-04-16T05:39:52.241Z,15.65
2023-04-16T05:41:53.728Z,15.45
2023-04-16T05:43:55.261Z,15.35
2023-04-16T05:45:56.875Z,16.25
2023-04-16T05:47:58.422Z,15.32
2023-04-16T05:49:59.884Z,15.43
2023-04-16T05:52:01.700Z,15.68
2023-04-16T05:54:03.287Z,15.43
2023-04-16T05:56:05.009Z,14.98
2023-04-16T05:58:06.518Z,14.63
2023-04-16T06:00:08.509Z,15.23
2023-04-16T06:02:10.084Z,14.15
2023-04-16T06:04:11.668Z,14.93
2023-04-16T06:06:13.394Z,13.48
2023-04-16T06:08:14.845Z,14.10
2023-04-16T06:10:16.457Z,14.05
2023-04-16T06:12:18.042Z,13.77
2023-04-16T06:14:19.681Z,14.10
2023-04-16T06:16:21.213Z,13.43
2023-04-16T06:18:22.698Z,14.55
2023-04-16T06:20:24.846Z,13.93
2023-04-16T06:22:26.562Z,15.25
2023-04-16T06:24:28.124Z,13.80
2023-04-16T06:26:29.588Z,14.45
2023-04-16T06:28:31.076Z,13.30
2023-04-16T06:30:32.637Z,13.77
2023-04-16T06:32:34.254Z,13.52
2023-04-16T06:34:35.975Z,13.32
2023-04-16T06:36:37.737Z,13.68
2023-04-16T06:38:39.265Z,13.63
2023-04-16T06:40:40.956Z,13.35
2023-04-16T06:42:45.313Z,13.82
2023-04-16T06:44:47.757Z,13.13
2023-04-16T06:46:50.888Z,13.68
2023-04-16T06:48:52.382Z,12.90
2023-04-16T06:50:54.952Z,12.95
2023-04-16T06:52:56.826Z,14.10
2023-04-16T06:54:58.628Z,14.07
2023-04-16T06:57:00.130Z,13.07
2023-04-16T06:59:01.582Z,13.73
2023-04-16T07:01:03.197Z,13.55
2023-04-16T07:03:04.889Z,12.65
2023-04-16T07:05:06.732Z,12.88
2023-04-16T07:07:08.741Z,13.65
2023-04-16T07:09:10.433Z,13.30
2023-04-16T07:11:12.154Z,12.15
2023-04-16T07:13:14.108Z,13.93
2023-04-16T07:15:15.700Z,13.10
2023-04-16T07:17:17.130Z,12.98
2023-04-16T07:19:18.572Z,13.65
2023-04-16T07:21:21.000Z,14.20
2023-04-16T07:23:22.440Z,13.07
2023-04-16T07:25:23.927Z,13.25
2023-04-16T07:27:25.480Z,12.05
2023-04-16T07:29:26.943Z,13.43
2023-04-16T07:31:28.512Z,12.48
2023-04-16T07:33:30.089Z,12.25
2023-04-16T07:35:31.815Z,13.27
2023-04-16T07:37:33.273Z,12.93
2023-04-16T07:39:34.788Z,12.07
2023-04-16T07:41:36.340Z,11.60
2023-04-16T07:43:37.778Z,12.35
2023-04-16T07:45:40.914Z,12.48
2023-04-16T07:47:42.903Z,12.75
2023-04-16T07:49:44.368Z,11.77
2023-04-16T07:51:45.871Z,12.75
2023-04-16T07:53:47.345Z,13.10
2023-04-16T07:55:48.849Z,11.55
2023-04-16T07:57:50.382Z,13.10
2023-04-16T07:59:51.900Z,12.05
2023-04-16T08:01:54.202Z,12.05
2023-04-16T08:03:56.000Z,13.07
2023-04-16T08:05:58.700Z,12.18
2023-04-16T08:08:00.266Z,13.25
2023-04-16T08:10:02.583Z,11.60
2023-04-16T08:12:04.486Z,13.23
2023-04-16T08:14:05.961Z,12.65
2023-04-16T08:16:07.764Z,12.15
2023-04-16T08:18:12.926Z,11.93
2023-04-16T08:20:17.632Z,13.07
2023-04-16T08:22:20.835Z,11.95
2023-04-16T08:24:22.547Z,11.07
2023-04-16T08:26:24.038Z,11.50
2023-04-16T08:28:25.647Z,11.48
2023-04-16T08:30:27.421Z,12.25
2023-04-16T08:32:28.941Z,12.40
2023-04-16T08:34:30.440Z,11.73
2023-04-16T08:36:32.048Z,10.98
2023-04-16T08:38:33.500Z,10.77
2023-04-16T08:40:39.062Z,12.15
2023-04-16T08:42:45.910Z,11.88
2023-04-16T08:44:49.864Z,12.05
2023-04-16T08:46:57.295Z,10.98
2023-04-16T08:49:00.332Z,11.48
2023-04-16T08:51:02.395Z,12.50
2023-04-16T08:53:06.545Z,11.68
2023-04-16T08:55:12.578Z,11.32
2023-04-16T08:57:19.052Z,12.18
2023-04-16T08:59:21.481Z,11.55
2023-04-16T09:01:25.383Z,11.32
2023-04-16T09:03:28.810Z,11.52
2023-04-16T09:05:31.611Z,11.65
2023-04-16T09:07:34.726Z,11.50
2023-04-16T09:09:39.138Z,11.20
2023-04-16T09:11:41.472Z,11.70
2023-04-16T09:13:43.238Z,11.95
2023-04-16T09:15:44.892Z,11.27
2023-04-16T09:17:46.499Z,10.80
2023-04-16T09:19:48.354Z,11.98
2023-04-16T09:21:49.976Z,11.85
2023-04-16T09:23:53.467Z,11.80
2023-04-16T09:25:56.569Z,11.68
2023-04-16T09:27:58.146Z,12.07
2023-04-16T09:29:59.716Z,12.05
2023-04-16T09:32:05.849Z,12.50
2023-04-16T09:34:09.120Z,12.50
2023-04-16T09:36:11.048Z,12.02
2023-04-16T09:38:12.528Z,12.30
2023-04-16T09:40:24.000Z,12.52
2023-04-16T09:42:27.423Z,11.68
2023-04-16T09:44:38.887Z,12.13
2023-04-16T09:46:43.549Z,12.30
2023-04-16T09:48:45.765Z,11.55
2023-04-16T09:50:51.274Z,12.80
2023-04-16T09:52:52.746Z,12.10
2023-04-16T09:54:54.630Z,12.02
2023-04-16T09:56:57.056Z,11.95
2023-04-16T09:59:00.578Z,11.95
2023-04-16T10:01:03.377Z,12.40
2023-04-16T10:03:06.064Z,11.68
2023-04-16T10:05:07.886Z,12.05
2023-04-16T10:07:09.351Z,12.82
2023-04-16T10:09:11.142Z,12.63
2023-04-16T10:11:13.512Z,11.00
2023-04-16T10:13:17.638Z,11.45
2023-04-16T10:15:19.231Z,11.60
2023-04-16T10:17:21.477Z,10.77
2023-04-16T10:19:23.581Z,12.18
2023-04-16T10:21:33.596Z,11.65
2023-04-16T10:23:35.546Z,12.30
2023-04-16T10:25:38.717Z,12.02
2023-04-16T10:27:41.213Z,11.15
2023-04-16T10:29:44.591Z,11.65
2023-04-16T10:31:47.643Z,11.30
2023-04-16T10:33:49.900Z,12.10
2023-04-16T10:36:01.393Z,11.40
2023-04-16T10:38:28.275Z,11.15
2023-04-16T10:40:29.804Z,11.43
2023-04-16T10:42:31.447Z,10.48
2023-04-16T10:44:33.525Z,10.55
2023-04-16T10:46:39.226Z,10.93
2023-04-16T10:48:49.595Z,10.57
2023-04-16T10:50:57.489Z,12.02
2023-04-16T10:53:23.454Z,12.15
2023-04-16T10:55:24.959Z,9.95
2023-04-16T10:57:29.662Z,10.90
2023-04-16T10:59:33.648Z,11.43
2023-04-16T11:01:37.489Z,10.75
2023-04-16T11:03:48.582Z,11.25
2023-04-16T11:05:50.523Z,9.43
2023-04-16T11:07:52.001Z,10.93
2023-04-16T11:10:13.714Z,10.23
2023-04-16T11:12:21.056Z,9.38
2023-04-16T11:14:22.562Z,10.30
2023-04-16T11:16:24.885Z,10.57
2023-04-16T11:18:26.519Z,10.07
2023-04-16T11:20:28.624Z,10.02
2023-04-16T11:22:30.762Z,10.13
2023-04-16T11:24:33.031Z,11.05
2023-04-16T11:26:34.522Z,10.27
2023-04-16T11:28:36.779Z,10.00
2023-04-16T11:30:39.470Z,10.20
2023-04-16T11:32:41.244Z,9.60
2023-04-16T11:34:46.015Z,9.80
2023-04-16T11:36:49.754Z,9.80
2023-04-16T11:38:51.478Z,9.48
2023-04-16T11:40:54.118Z,10.20
2023-04-16T11:42:55.705Z,10.10
2023-04-16T11:45:00.675Z,10.30
2023-04-16T11:47:07.339Z,10.43
2023-04-16T11:49:09.496Z,10.30
2023-04-16T11:51:11.481Z,10.20
2023-04-16T11:53:12.983Z,9.75
2023-04-16T11:55:14.569Z,10.73
2023-04-16T11:57:24.414Z,9.80
2023-04-16T11:59:27.165Z,10.30
2023-04-16T12:01:28.713Z,11.27
2023-04-16T12:03:44.240Z,10.90
2023-04-16T12:05:46.044Z,11.80
2023-04-16T12:07:47.521Z,10.07
2023-04-16T12:09:49.016Z,10.30
2023-04-16T12:11:50.790Z,10.30
2023-04-16T12:14:08.660Z,10.38
2023-04-16T12:16:19.841Z,11.07
2023-04-16T12:18:29.134Z,10.50
2023-04-16T12:20:40.056Z,11.25
2023-04-16T12:22:50.727Z,10.05
2023-04-16T12:24:56.987Z,10.52
2023-04-16T12:27:03.153Z,11.10
2023-04-16T12:29:16.974Z,10.43
2023-04-16T12:31:20.382Z,10.52
2023-04-16T12:33:21.924Z,11.57
2023-04-16T12:35:34.005Z,11.23
2023-04-16T12:37:35.829Z,10.80
2023-04-16T12:39:37.313Z,10.25
2023-04-16T12:41:40.688Z,11.02
2023-04-16T12:43:42.205Z,11.52
2023-04-16T12:45:43.713Z,11.05
2023-04-16T12:47:45.528Z,10.73
2023-04-16T12:49:47.030Z,11.02
2023-04-16T12:51:49.127Z,10.75
2023-04-16T12:53:50.685Z,9.98
2023-04-16T12:55:52.238Z,10.93
2023-04-16T12:57:54.435Z,10.48
2023-04-16T12:59:57.168Z,11.00
2023-04-16T13:02:00.484Z,10.40
2023-04-16T13:04:02.175Z,11.05
2023-04-16T13:06:04.365Z,11.82
2023-04-16T13:08:06.013Z,10.68
2023-04-16T13:10:08.147Z,11.35
2023-04-16T13:12:09.611Z,11.63
2023-04-16T13:14:11.097Z,10.77
2023-04-16T13:16:12.713Z,11.25
2023-04-16T13:18:14.251Z,11.52
2023-04-16T13:20:15.767Z,10.90
2023-04-16T13:22:17.302Z,11.57
2023-04-16T13:24:21.611Z,11.77
2023-04-16T13:26:23.080Z,12.15
2023-04-16T13:28:24.537Z,11.50
2023-04-16T13:30:26.112Z,11.32
2023-04-16T13:32:27.617Z,11.35
2023-04-16T13:34:29.223Z,12.02
2023-04-16T13:36:32.215Z,11.80
2023-04-16T13:38:33.750Z,11.25
2023-04-16T13:40:35.286Z,11.75
2023-04-16T13:42:36.744Z,11.90
2023-04-16T13:44:38.236Z,11.75
2023-04-16T13:46:39.850Z,11.80
2023-04-16T13:48:41.408Z,11.35
2023-04-16T13:50:42.902Z,11.02
2023-04-16T13:52:44.388Z,11.95
2023-04-16T13:54:45.934Z,12.07
2023-04-16T13:56:47.474Z,11.40
2023-04-16T13:58:49.311Z,12.07
2023-04-16T14:00:51.080Z,11.43
2023-04-16T14:02:53.266Z,12.18
2023-04-16T14:04:54.845Z,12.48
2023-04-16T14:06:56.348Z,12.27
2023-04-16T14:08:57.820Z,11.68
2023-04-16T14:10:59.324Z,11.77
2023-04-16T14:13:00.944Z,11.63
2023-04-16T14:15:04.406Z,11.88
2023-04-16T14:17:07.507Z,12.68
2023-04-16T14:19:09.722Z,12.73
2023-04-16T14:21:11.606Z,11.25
2023-04-16T14:23:13.116Z,11.80
2023-04-16T14:25:14.615Z,12.02
2023-04-16T14:27:16.995Z,12.90
2023-04-16T14:29:18.503Z,12.55
2023-04-16T14:31:20.604Z,12.32
2023-04-16T14:33:22.192Z,12.70
2023-04-16T14:35:23.806Z,12.48
2023-04-16T14:37:26.270Z,12.80
2023-04-16T14:39:27.820Z,13.15
2023-04-16T14:41:30.397Z,12.40
2023-04-16T14:43:31.874Z,11.75
2023-04-16T14:45:33.485Z,12.23
2023-04-16T14:47:36.828Z,12.30
2023-04-16T14:49:38.353Z,11.95
2023-04-16T14:51:40.490Z,12.20
2023-04-16T14:53:42.061Z,12.52
2023-04-16T14:55:44.102Z,13.15
2023-04-16T14:57:45.564Z,12.45
2023-04-16T14:59:48.324Z,11.88
2023-04-16T15:01:51.009Z,13.10
2023-04-16T15:03:52.836Z,12.45
2023-04-16T15:05:57.278Z,12.70
2023-04-16T15:07:58.798Z,11.77
2023-04-16T15:10:00.325Z,13.93
2023-04-16T15:12:01.846Z,13.63
2023-04-16T15:14:03.321Z,13.25
2023-04-16T15:16:05.309Z,12.90
2023-04-16T15:18:06.900Z,12.93
2023-04-16T15:20:09.059Z,12.80
2023-04-16T15:22:10.499Z,13.20
2023-04-16T15:24:12.278Z,13.00
2023-04-16T15:26:13.848Z,12.23
2023-04-16T15:28:15.897Z,12.40
2023-04-16T15:30:17.621Z,13.48
2023-04-16T15:32:19.151Z,13.60
2023-04-16T15:34:20.674Z,13.50
2023-04-16T15:36:22.659Z,13.32
2023-04-16T15:38:24.118Z,13.05
2023-04-16T15:40:25.650Z,13.07
2023-04-16T15:42:27.100Z,13.32
2023-04-16T15:44:30.365Z,13.63
2023-04-16T15:46:32.069Z,14.00
2023-04-16T15:48:33.593Z,13.45
2023-04-16T15:50:35.229Z,13.77
2023-04-16T15:52:38.630Z,12.90
2023-04-16T15:54:40.831Z,13.68
2023-04-16T15:56:42.335Z,13.90
2023-04-16T15:58:43.892Z,13.85
2023-04-16T16:00:49.665Z,13.65
2023-04-16T16:02:51.474Z,13.70
2023-04-16T16:04:53.052Z,12.65
2023-04-16T16:06:54.695Z,13.40
2023-04-16T16:08:56.715Z,13.20
2023-04-16T16:10:58.189Z,12.73
2023-04-16T16:13:05.167Z,13.00
2023-04-16T16:15:07.250Z,13.43
2023-04-16T16:17:08.720Z,13.77
2023-04-16T16:19:10.723Z,13.90
2023-04-16T16:21:12.259Z,12.85
2023-04-16T16:23:13.819Z,13.15
2023-04-16T16:25:15.312Z,12.43
2023-04-16T16:27:17.850Z,12.13
2023-04-16T16:29:19.327Z,13.13
2023-04-16T16:31:20.980Z,12.68
2023-04-16T16:33:22.631Z,13.65
2023-04-16T16:35:26.010Z,12.02
2023-04-16T16:37:29.160Z,12.55
2023-04-16T16:39:31.810Z,12.25
2023-04-16T16:41:37.583Z,12.73
2023-04-16T16:43:39.066Z,12.98
2023-04-16T16:45:40.753Z,12.43
2023-04-16T16:47:42.322Z,13.15
2023-04-16T16:49:44.660Z,13.30
2023-04-16T16:51:47.395Z,13.25
2023-04-16T16:53:48.860Z,11.90
2023-04-16T16:55:50.306Z,11.73
2023-04-16T16:57:51.963Z,12.63
2023-04-16T16:59:54.510Z,12.85
2023-04-16T17:01:56.310Z,11.90
2023-04-16T17:03:57.923Z,12.20
2023-04-16T17:05:59.612Z,11.15
2023-04-16T17:08:01.261Z,11.70
2023-04-16T17:10:05.273Z,11.60
2023-04-16T17:12:08.144Z,11.88
2023-04-16T17:14:09.608Z,11.30
2023-04-16T17:16:11.886Z,10.95
2023-04-16T17:18:13.561Z,11.73
2023-04-16T17:20:15.638Z,11.82
2023-04-16T17:22:17.414Z,10.95
2023-04-16T17:24:18.935Z,11.07
2023-04-16T17:26:20.471Z,10.88
2023-04-16T17:28:22.026Z,11.40
2023-04-16T17:30:25.834Z,11.27
2023-04-16T17:32:28.220Z,11.20
2023-04-16T17:34:29.786Z,12.80
2023-04-16T17:36:31.365Z,11.27
2023-04-16T17:38:33.778Z,11.85
2023-04-16T17:40:35.326Z,11.35
2023-04-16T17:42:37.043Z,11.23
2023-04-16T17:44:38.561Z,11.40
2023-04-16T17:46:40.031Z,11.18
2023-04-16T17:48:41.555Z,11.38
2023-04-16T17:50:43.013Z,11.35
2023-04-16T17:52:44.604Z,10.82
2023-04-16T17:54:46.146Z,10.77
2023-04-16T17:56:47.615Z,11.55
2023-04-16T17:58:49.063Z,11.35
2023-04-16T18:00:50.651Z,10.60
2023-04-16T18:02:52.755Z,11.85
2023-04-16T18:04:54.455Z,10.60
2023-04-16T18:06:56.140Z,10.65
2023-04-16T18:08:57.697Z,11.07
2023-04-16T18:10:59.245Z,10.98
2023-04-16T18:13:00.720Z,11.23
2023-04-16T18:15:02.227Z,10.68
2023-04-16T18:17:06.348Z,10.45
2023-04-16T18:19:08.299Z,10.32
2023-04-16T18:21:10.146Z,10.43
2023-04-16T18:23:11.643Z,10.85
2023-04-16T18:25:13.159Z,10.98
2023-04-16T18:27:14.653Z,11.65
2023-04-16T18:29:17.723Z,10.65
2023-04-16T18:31:21.436Z,11.63
2023-04-16T18:33:48.645Z,11.93
2023-04-16T18:35:44.519Z,10.90
2023-04-16T18:37:46.764Z,11.25
2023-04-16T18:39:48.261Z,11.38
2023-04-16T18:41:49.847Z,12.27
2023-04-16T18:43:51.751Z,11.88
2023-04-16T18:45:53.288Z,11.73
2023-04-16T18:47:58.446Z,11.95
2023-04-16T18:50:00.041Z,12.20
2023-04-16T18:52:01.856Z,11.70
2023-04-16T18:54:03.379Z,10.63
2023-04-16T18:56:05.318Z,11.32
2023-04-16T18:58:06.940Z,11.27
2023-04-16T19:00:12.809Z,11.43
2023-04-16T19:02:14.466Z,11.98
2023-04-16T19:04:16.533Z,10.85
2023-04-16T19:06:18.127Z,11.73
2023-04-16T19:08:20.022Z,10.93
2023-04-16T19:10:21.560Z,11.40
2023-04-16T19:12:23.270Z,11.30
2023-04-16T19:14:24.736Z,11.23
2023-04-16T19:16:26.279Z,10.82
2023-04-16T19:18:28.058Z,11.10
2023-04-16T19:20:29.667Z,13.27
2023-04-16T19:22:31.353Z,11.10
2023-04-16T19:24:34.230Z,11.93
2023-04-16T19:26:37.284Z,10.77
2023-04-16T19:28:39.052Z,11.90
2023-04-16T19:30:40.714Z,11.80
2023-04-16T19:32:42.304Z,10.50
2023-04-16T19:34:43.787Z,9.85
2023-04-16T19:36:45.932Z,10.98
2023-04-16T19:38:47.426Z,10.43
2023-04-16T19:40:48.986Z,11.05
2023-04-16T19:42:50.598Z,10.75
2023-04-16T19:44:52.146Z,9.93
2023-04-16T19:46:53.744Z,11.05
2023-04-16T19:48:56.796Z,12.05
2023-04-16T19:51:03.009Z,11.07
2023-04-16T19:53:04.494Z,11.25
2023-04-16T19:55:07.036Z,10.88
2023-04-16T19:57:08.825Z,11.48
2023-04-16T19:59:10.536Z,11.05
2023-04-16T20:01:12.237Z,13.68
2023-04-16T20:03:13.835Z,14.45
2023-04-16T20:05:15.612Z,11.77
2023-04-16T20:07:17.629Z,11.27
2023-04-16T20:09:20.183Z,11.23
2023-04-16T20:11:21.688Z,11.73
2023-04-16T20:13:23.325Z,10.70
2023-04-16T20:15:24.820Z,11.30
2023-04-16T20:17:26.599Z,11.40
2023-04-16T20:19:34.068Z,11.43
2023-04-16T20:21:35.848Z,11.93
2023-04-16T20:23:37.350Z,11.50
2023-04-16T20:25:46.149Z,11.57
2023-04-16T20:27:47.635Z,11.25
2023-04-16T20:29:49.158Z,12.23
2023-04-16T20:31:50.636Z,11.73
2023-04-16T20:33:52.626Z,11.43
2023-04-16T20:35:54.476Z,11.02
2023-04-16T20:37:55.968Z,12.50
2023-04-16T20:39:57.392Z,12.32
2023-04-16T20:41:58.871Z,12.40
2023-04-16T20:44:05.322Z,12.35
2023-04-16T20:46:12.757Z,12.32
2023-04-16T20:48:14.468Z,12.90
2023-04-16T20:50:16.097Z,12.75
2023-04-16T20:52:17.593Z,12.43
2023-04-16T20:54:19.096Z,12.60
2023-04-16T20:56:20.892Z,12.40
2023-04-16T20:58:22.737Z,12.15
2023-04-16T21:00:24.392Z,12.82
2023-04-16T21:02:28.349Z,12.43
2023-04-16T21:04:30.292Z,13.13
2023-04-16T21:06:32.959Z,12.30
2023-04-16T21:08:34.634Z,12.90
2023-04-16T21:10:36.101Z,13.52
2023-04-16T21:12:37.690Z,13.10
2023-04-16T21:14:39.193Z,13.63
2023-04-16T21:16:40.797Z,12.27
2023-04-16T21:18:42.331Z,12.65
2023-04-16T21:20:44.380Z,13.02
2023-04-16T21:22:46.045Z,12.73
2023-04-16T21:24:47.499Z,13.30
2023-04-16T21:26:48.951Z,13.20
2023-04-16T21:28:50.411Z,13.13
2023-04-16T21:30:52.414Z,13.27
2023-04-16T21:32:53.969Z,12.88
2023-04-16T21:34:55.803Z,12.88
2023-04-16T21:36:57.330Z,13.60
2023-04-16T21:38:58.951Z,13.10
2023-04-16T21:41:01.413Z,13.60
2023-04-16T21:43:03.237Z,12.88
2023-04-16T21:45:05.440Z,13.27
2023-04-16T21:47:06.938Z,13.18
2023-04-16T21:49:08.494Z,12.75
2023-04-16T21:51:10.068Z,14.27
2023-04-16T21:53:11.902Z,14.18
2023-04-16T21:55:14.408Z,13.50
2023-04-16T21:57:16.079Z,15.27
2023-04-16T21:59:17.558Z,14.23
2023-04-16T22:01:19.148Z,13.60
2023-04-16T22:03:26.214Z,13.82
2023-04-16T22:05:28.945Z,14.65
2023-04-16T22:07:30.563Z,14.02
2023-04-16T22:09:32.550Z,13.70
2023-04-16T22:11:33.980Z,13.98
2023-04-16T22:13:36.646Z,13.52
2023-04-16T22:15:38.336Z,14.25
2023-04-16T22:17:40.542Z,13.63
2023-04-16T22:19:42.408Z,13.18
2023-04-16T22:21:44.180Z,13.95
2023-04-16T22:23:46.152Z,14.02
2023-04-16T22:25:47.690Z,14.25
2023-04-16T22:27:49.205Z,13.35
2023-04-16T22:29:50.813Z,13.77
2023-04-16T22:31:52.534Z,14.32
2023-04-16T22:33:54.031Z,13.63
2023-04-16T22:35:55.594Z,13.60
2023-04-16T22:37:57.107Z,13.65
2023-04-16T22:39:58.690Z,14.20
2023-04-16T22:42:00.680Z,14.73
2023-04-16T22:44:02.440Z,14.40
2023-04-16T22:46:06.300Z,14.32
2023-04-16T22:48:07.984Z,14.57
2023-04-16T22:50:10.790Z,13.60
2023-04-16T22:52:12.268Z,13.80
2023-04-16T22:54:14.079Z,14.15
2023-04-16T22:56:15.628Z,14.02
2023-04-16T22:58:17.522Z,14.05
2023-04-16T23:00:19.393Z,13.57
2023-04-16T23:02:21.467Z,14.63
2023-04-16T23:04:23.112Z,14.27
2023-04-16T23:06:24.708Z,14.23
2023-04-16T23:08:26.183Z,14.25
2023-04-16T23:10:27.751Z,14.30
2023-04-16T23:12:29.211Z,14.65
2023-04-16T23:14:31.522Z,14.70
2023-04-16T23:16:33.008Z,15.60
2023-04-16T23:18:34.601Z,14.77
2023-04-16T23:20:36.092Z,15.48
2023-04-16T23:22:38.056Z,13.57
2023-04-16T23:24:39.564Z,13.70
2023-04-16T23:26:41.070Z,14.63
2023-04-16T23:28:42.583Z,13.75
2023-04-16T23:30:44.033Z,15.23
2023-04-16T23:32:45.635Z,14.35
2023-04-16T23:34:47.142Z,14.88
2023-04-16T23:36:48.596Z,14.27
2023-04-16T23:38:50.081Z,15.98
2023-04-16T23:40:51.585Z,15.15
2023-04-16T23:42:53.067Z,15.18
2023-04-16T23:44:54.514Z,14.73
2023-04-16T23:46:56.133Z,14.93
2023-04-16T23:48:57.744Z,15.18
2023-04-16T23:50:59.402Z,16.33
2023-04-16T23:53:00.869Z,15.52
2023-04-16T23:55:02.521Z,15.20
2023-04-16T23:57:04.142Z,15.13
2023-04-16T23:59:05.885Z,15.23
